createdAt,value
2023-02-01T05:07:21.405Z,101772.38
2023-02-01T05:09:49.221Z,101779.75
2023-02-01T05:12:35.046Z,101772.75
2023-02-01T05:15:02.388Z,101778.13
2023-02-01T05:17:30.081Z,101775.13
2023-02-01T05:19:57.470Z,101777.69
2023-02-01T05:22:25.205Z,101781.03
2023-02-01T05:24:52.456Z,101787.13
2023-02-01T05:27:20.158Z,101773.31
2023-02-01T05:29:47.397Z,101779.94
2023-02-01T05:32:22.057Z,101790.69
2023-02-01T05:34:50.486Z,101794.03
2023-02-01T05:37:17.907Z,101794.16
2023-02-01T05:39:45.265Z,101793.31
2023-02-01T05:42:12.578Z,101799.94
2023-02-01T05:44:40.279Z,101794.78
2023-02-01T05:47:08.494Z,101804.78
2023-02-01T05:49:36.566Z,101808.41
2023-02-01T05:52:04.112Z,101798.69
2023-02-01T05:54:31.478Z,101798.97
2023-02-01T05:56:59.164Z,101798.00
2023-02-01T05:59:26.423Z,101794.81
2023-02-01T06:01:54.594Z,101788.34
2023-02-01T06:04:22.337Z,101789.56
2023-02-01T06:06:51.398Z,101792.56
2023-02-01T06:09:19.228Z,101791.56
2023-02-01T06:11:46.581Z,101790.84
2023-02-01T06:14:13.880Z,101792.78
2023-02-01T06:16:41.165Z,101790.28
2023-02-01T06:19:09.765Z,101795.44
2023-02-01T06:21:37.565Z,101808.19
2023-02-01T06:24:05.438Z,101811.13
2023-02-01T06:26:32.964Z,101815.06
2023-02-01T06:29:00.769Z,101806.50
2023-02-01T06:31:28.682Z,101805.97
2023-02-01T06:33:57.207Z,101799.09
2023-02-01T06:36:25.234Z,101806.28
2023-02-01T06:38:53.012Z,101794.16
2023-02-01T06:41:21.589Z,101783.44
2023-02-01T06:43:49.034Z,101793.81
2023-02-01T06:46:16.976Z,101779.88
2023-02-01T06:48:46.945Z,101781.06
2023-02-01T06:51:23.463Z,101771.06
2023-02-01T06:53:50.937Z,101769.69
2023-02-01T06:56:18.645Z,101776.91
2023-02-01T06:58:46.486Z,101774.84
2023-02-01T07:01:14.545Z,101779.22
2023-02-01T07:03:42.253Z,101784.78
2023-02-01T07:06:10.543Z,101795.09
2023-02-01T07:08:39.084Z,101807.22
2023-02-01T07:11:11.941Z,101811.50
2023-02-01T07:13:39.477Z,101806.06
2023-02-01T07:16:11.634Z,101814.19
2023-02-01T07:18:38.976Z,101822.84
2023-02-01T07:21:06.501Z,101833.50
2023-02-01T07:23:33.780Z,101837.16
2023-02-01T07:26:04.524Z,101836.41
2023-02-01T07:28:34.152Z,101848.28
2023-02-01T07:31:09.754Z,101849.72
2023-02-01T07:33:38.413Z,101851.41
2023-02-01T07:36:08.785Z,101837.72
2023-02-01T07:38:36.455Z,101837.09
2023-02-01T07:41:06.573Z,101842.06
2023-02-01T07:43:36.540Z,101839.22
2023-02-01T07:46:05.215Z,101846.16
2023-02-01T07:48:35.002Z,101840.78
2023-02-01T07:51:08.970Z,101854.44
2023-02-01T07:53:37.541Z,101855.19
2023-02-01T07:56:10.408Z,101857.66
2023-02-01T07:58:38.387Z,101852.22
2023-02-01T08:01:21.457Z,101852.41
2023-02-01T08:03:54.718Z,101858.81
2023-02-01T08:06:23.170Z,101865.22
2023-02-01T08:08:51.693Z,101842.63
2023-02-01T08:11:22.524Z,101831.25
2023-02-01T08:13:51.132Z,101816.03
2023-02-01T08:16:21.045Z,101814.31
2023-02-01T08:18:48.524Z,101816.75
2023-02-01T08:21:19.412Z,101826.19
2023-02-01T08:23:47.479Z,101830.66
2023-02-01T08:26:16.233Z,101842.69
2023-02-01T08:28:53.474Z,101856.38
2023-02-01T08:31:23.877Z,101862.84
2023-02-01T08:33:57.909Z,101863.53
2023-02-01T08:36:26.660Z,101868.00
2023-02-01T08:38:54.272Z,101871.13
2023-02-01T08:41:24.650Z,101866.50
2023-02-01T08:43:52.699Z,101861.88
2023-02-01T08:46:20.167Z,101860.09
2023-02-01T08:48:48.760Z,101850.69
2023-02-01T08:51:18.817Z,101846.09
2023-02-01T08:53:46.529Z,101845.22
2023-02-01T08:56:15.914Z,101852.81
2023-02-01T08:58:43.924Z,101848.31
2023-02-01T09:01:15.279Z,101842.34
2023-02-01T09:03:42.743Z,101849.53
2023-02-01T09:06:13.008Z,101839.66
2023-02-01T09:08:41.711Z,101843.38
2023-02-01T09:11:14.706Z,101845.09
2023-02-01T09:13:42.785Z,101843.16
2023-02-01T09:16:10.528Z,101855.91
2023-02-01T09:18:46.064Z,101864.84
2023-02-01T09:21:24.843Z,101854.06
2023-02-01T09:23:52.751Z,101852.31
2023-02-01T09:26:26.553Z,101843.81
2023-02-01T09:28:58.714Z,101843.69
2023-02-01T09:31:26.539Z,101839.53
2023-02-01T09:33:53.887Z,101844.34
2023-02-01T09:36:21.184Z,101834.81
2023-02-01T09:38:52.779Z,101844.09
2023-02-01T09:41:42.414Z,101838.44
2023-02-01T09:44:44.096Z,101838.28
2023-02-01T09:47:14.693Z,101839.78
2023-02-01T09:50:18.056Z,101852.41
2023-02-01T09:52:56.854Z,101851.38
2023-02-01T09:55:42.288Z,101846.75
2023-02-01T09:58:17.802Z,101840.91
2023-02-01T10:00:55.288Z,101850.50
2023-02-01T10:03:26.377Z,101846.16
2023-02-01T10:06:21.956Z,101847.19
2023-02-01T10:09:02.092Z,101864.69
2023-02-01T10:11:49.267Z,101863.56
2023-02-01T10:14:29.811Z,101860.84
2023-02-01T10:17:29.522Z,101860.94
2023-02-01T10:20:05.194Z,101835.63
2023-02-01T10:23:10.331Z,101831.88
2023-02-01T10:26:06.309Z,101824.63
2023-02-01T10:28:38.020Z,101814.41
2023-02-01T10:31:09.245Z,101821.06
2023-02-01T10:33:49.797Z,101806.53
2023-02-01T10:36:30.432Z,101808.94
2023-02-01T10:39:00.912Z,101820.69
2023-02-01T10:41:34.200Z,101825.88
2023-02-01T10:44:05.799Z,101821.75
2023-02-01T10:46:34.671Z,101813.91
2023-02-01T10:49:05.780Z,101813.44
2023-02-01T10:51:59.368Z,101809.78
2023-02-01T10:54:40.203Z,101797.72
2023-02-01T10:57:21.269Z,101811.13
2023-02-01T10:59:48.693Z,101813.56
2023-02-01T11:02:36.673Z,101806.16
2023-02-01T11:05:13.130Z,101804.19
2023-02-01T11:07:48.658Z,101802.28
2023-02-01T11:10:36.899Z,101814.56
2023-02-01T11:13:06.754Z,101803.28
2023-02-01T11:15:34.430Z,101799.34
2023-02-01T11:18:17.994Z,101798.78
2023-02-01T11:20:50.155Z,101796.84
2023-02-01T11:23:20.634Z,101799.25
2023-02-01T11:25:55.269Z,101795.66
2023-02-01T11:28:27.713Z,101795.53
2023-02-01T11:30:58.326Z,101788.41
2023-02-01T11:33:31.193Z,101786.25
2023-02-01T11:35:59.621Z,101774.84
2023-02-01T11:38:33.525Z,101774.50
2023-02-01T11:41:14.288Z,101771.66
2023-02-01T11:43:59.845Z,101760.97
2023-02-01T11:46:35.908Z,101762.84
2023-02-01T11:49:28.840Z,101756.22
2023-02-01T11:52:09.355Z,101747.25
2023-02-01T11:54:57.143Z,101746.88
2023-02-01T11:57:50.994Z,101742.56
2023-02-01T12:00:33.775Z,101733.78
2023-02-01T12:03:26.352Z,101729.53
2023-02-01T12:05:59.682Z,101727.16
2023-02-01T12:08:46.106Z,101728.47
2023-02-01T12:11:32.552Z,101721.16
2023-02-01T12:14:42.038Z,101697.66
2023-02-01T12:17:28.031Z,101701.84
2023-02-01T12:20:00.972Z,101681.03
2023-02-01T12:22:43.802Z,101678.28
2023-02-01T12:25:20.700Z,101662.16
2023-02-01T12:28:13.354Z,101656.22
2023-02-01T12:30:56.409Z,101656.59
2023-02-01T12:33:44.326Z,101654.03
2023-02-01T12:36:18.266Z,101652.81
2023-02-01T12:39:17.331Z,101651.78
2023-02-01T12:42:20.304Z,101639.88
2023-02-01T12:44:51.790Z,101629.13
2023-02-01T12:47:37.756Z,101645.50
2023-02-01T12:50:23.094Z,101637.97
2023-02-01T12:52:53.528Z,101622.97
2023-02-01T12:55:21.436Z,101614.00
2023-02-01T12:57:54.361Z,101612.16
2023-02-01T13:00:40.845Z,101610.28
2023-02-01T13:03:24.084Z,101609.38
2023-02-01T13:06:08.204Z,101602.94
2023-02-01T13:08:48.477Z,101596.56
2023-02-01T13:11:28.841Z,101595.19
2023-02-01T13:14:08.916Z,101596.53
2023-02-01T13:16:44.541Z,101593.91
2023-02-01T13:19:30.070Z,101596.03
2023-02-01T13:22:03.215Z,101589.75
2023-02-01T13:25:06.391Z,101587.94
2023-02-01T13:27:34.321Z,101590.66
2023-02-01T13:30:31.396Z,101582.38
2023-02-01T13:33:52.531Z,101574.69
2023-02-01T13:36:20.211Z,101574.56
2023-02-01T13:39:19.229Z,101583.50
2023-02-01T13:41:58.441Z,101579.91
2023-02-01T13:44:33.071Z,101575.22
2023-02-01T13:47:04.573Z,101570.38
2023-02-01T13:49:39.964Z,101568.81
2023-02-01T13:52:22.251Z,101560.53
2023-02-01T13:54:49.666Z,101544.00
2023-02-01T13:57:39.165Z,101547.84
2023-02-01T14:00:25.479Z,101551.34
2023-02-01T14:03:02.068Z,101554.09
2023-02-01T14:05:35.711Z,101553.63
2023-02-01T14:08:06.624Z,101547.22
2023-02-01T14:10:46.432Z,101545.56
2023-02-01T14:13:35.115Z,101552.78
2023-02-01T14:16:03.116Z,101552.16
2023-02-01T14:18:42.233Z,101553.97
2023-02-01T14:21:32.056Z,101553.28
2023-02-01T14:24:03.359Z,101553.59
2023-02-01T14:26:54.146Z,101540.50
2023-02-01T14:29:31.945Z,101536.84
2023-02-01T14:32:26.716Z,101548.13
2023-02-01T14:34:58.062Z,101550.41
2023-02-01T14:37:33.293Z,101546.03
2023-02-01T14:40:15.883Z,101549.53
2023-02-01T14:42:44.171Z,101556.88
2023-02-01T14:45:22.976Z,101546.72
2023-02-01T14:48:13.844Z,101545.56
2023-02-01T14:50:44.853Z,101546.81
2023-02-01T14:53:14.964Z,101546.63
2023-02-01T14:55:43.979Z,101552.44
2023-02-01T14:58:34.932Z,101542.28
2023-02-01T15:01:06.161Z,101540.03
2023-02-01T15:03:44.683Z,101539.28
2023-02-01T15:06:38.349Z,101535.13
2023-02-01T15:09:35.711Z,101534.50
2023-02-01T15:12:05.709Z,101530.56
2023-02-01T15:14:39.275Z,101538.44
2023-02-01T15:17:27.801Z,101536.72
2023-02-01T15:19:56.407Z,101537.69
2023-02-01T15:22:23.964Z,101537.22
2023-02-01T15:24:56.233Z,101547.94
2023-02-01T15:27:25.139Z,101549.72
2023-02-01T15:29:52.387Z,101550.00
2023-02-01T15:32:39.480Z,101543.88
2023-02-01T15:35:27.411Z,101545.78
2023-02-01T15:38:33.077Z,101533.63
2023-02-01T15:41:05.805Z,101528.09
2023-02-01T15:43:40.165Z,101536.19
2023-02-01T15:46:22.484Z,101531.44
2023-02-01T15:48:53.586Z,101535.50
2023-02-01T15:51:24.647Z,101538.78
2023-02-01T15:53:56.082Z,101534.09
2023-02-01T15:56:26.597Z,101534.09
2023-02-01T15:58:58.672Z,101534.53
2023-02-01T16:01:26.674Z,101534.47
2023-02-01T16:04:22.249Z,101539.81
2023-02-01T16:07:01.904Z,101540.03
2023-02-01T16:09:53.947Z,101549.47
2023-02-01T16:12:32.442Z,101540.75
2023-02-01T16:15:00.303Z,101547.34
2023-02-01T16:17:28.633Z,101547.75
2023-02-01T16:19:56.478Z,101553.19
2023-02-01T16:22:23.895Z,101544.06
2023-02-01T16:24:51.189Z,101544.75
2023-02-01T16:27:18.507Z,101550.41
2023-02-01T16:29:45.843Z,101544.13
2023-02-01T16:32:22.436Z,101556.00
2023-02-01T16:34:49.909Z,101566.22
2023-02-01T16:37:21.887Z,101558.75
2023-02-01T16:39:49.592Z,101563.84
2023-02-01T16:42:17.826Z,101557.06
2023-02-01T16:44:45.161Z,101559.59
2023-02-01T16:47:17.029Z,101562.69
2023-02-01T16:49:44.635Z,101567.28
2023-02-01T16:52:26.907Z,101562.50
2023-02-01T16:54:55.126Z,101573.88
2023-02-01T16:57:24.321Z,101573.66
2023-02-01T16:59:52.149Z,101581.13
2023-02-01T17:02:21.048Z,101574.53
2023-02-01T17:04:49.581Z,101575.38
2023-02-01T17:07:19.653Z,101578.91
2023-02-01T17:09:47.724Z,101591.44
2023-02-01T17:12:24.181Z,101598.03
2023-02-01T17:14:53.172Z,101595.63
2023-02-01T17:17:32.784Z,101608.16
2023-02-01T17:20:07.136Z,101607.41
2023-02-01T17:22:34.580Z,101606.13
2023-02-01T17:25:02.464Z,101609.50
2023-02-01T17:27:30.230Z,101614.41
2023-02-01T17:29:57.553Z,101612.50
2023-02-01T17:32:26.269Z,101618.38
2023-02-01T17:34:53.609Z,101617.31
2023-02-01T17:37:23.641Z,101616.97
2023-02-01T17:39:57.163Z,101619.28
2023-02-01T17:42:27.476Z,101623.31
2023-02-01T17:44:59.483Z,101616.69
2023-02-01T17:47:27.173Z,101621.53
2023-02-01T17:49:56.875Z,101631.50
2023-02-01T17:52:26.059Z,101628.53
2023-02-01T17:54:54.133Z,101628.00
2023-02-01T17:57:22.145Z,101626.28
2023-02-01T17:59:49.484Z,101637.13
2023-02-01T18:02:22.810Z,101625.97
2023-02-01T18:04:51.294Z,101623.47
2023-02-01T18:07:20.013Z,101628.53
2023-02-01T18:09:47.563Z,101632.31
2023-02-01T18:12:26.540Z,101624.97
2023-02-01T18:14:53.912Z,101630.66
2023-02-01T18:17:21.182Z,101630.38
2023-02-01T18:19:48.872Z,101633.38
2023-02-01T18:22:23.725Z,101637.06
2023-02-01T18:24:51.192Z,101639.34
2023-02-01T18:27:19.155Z,101639.59
2023-02-01T18:29:46.981Z,101639.69
2023-02-01T18:32:14.385Z,101638.19
2023-02-01T18:34:41.687Z,101631.66
2023-02-01T18:37:09.657Z,101645.56
2023-02-01T18:39:39.460Z,101646.34
2023-02-01T18:42:10.192Z,101643.72
2023-02-01T18:44:38.006Z,101639.94
2023-02-01T18:47:05.819Z,101645.44
2023-02-01T18:49:33.250Z,101647.50
2023-02-01T18:52:00.800Z,101640.56
2023-02-01T18:54:28.367Z,101638.75
2023-02-01T18:56:56.092Z,101633.91
2023-02-01T18:59:23.385Z,101638.47
2023-02-01T19:01:50.761Z,101645.72
2023-02-01T19:04:20.292Z,101643.41
2023-02-01T19:06:49.987Z,101639.22
2023-02-01T19:09:17.793Z,101645.34
2023-02-01T19:11:45.020Z,101643.09
2023-02-01T19:14:12.784Z,101637.38
2023-02-01T19:16:40.217Z,101647.22
2023-02-01T19:19:07.608Z,101644.88
2023-02-01T19:21:35.294Z,101651.16
2023-02-01T19:24:03.838Z,101650.84
2023-02-01T19:26:31.283Z,101651.00
2023-02-01T19:28:58.911Z,101654.00
2023-02-01T19:31:26.602Z,101651.34
2023-02-01T19:33:55.014Z,101658.47
2023-02-01T19:36:22.490Z,101647.50
2023-02-01T19:38:49.782Z,101647.34
2023-02-01T19:41:17.184Z,101646.31
2023-02-01T19:43:45.367Z,101646.16
2023-02-01T19:46:12.881Z,101651.59
2023-02-01T19:48:40.585Z,101658.34
2023-02-01T19:51:09.261Z,101658.38
2023-02-01T19:53:36.611Z,101660.25
2023-02-01T19:56:05.164Z,101663.72
2023-02-01T19:58:32.544Z,101662.94
2023-02-01T20:01:01.845Z,101659.03
2023-02-01T20:03:29.140Z,101657.84
2023-02-01T20:05:58.013Z,101657.25
2023-02-01T20:08:26.293Z,101659.19
2023-02-01T20:10:53.965Z,101663.63
2023-02-01T20:13:21.764Z,101664.81
2023-02-01T20:15:55.357Z,101661.81
2023-02-01T20:18:22.668Z,101668.19
2023-02-01T20:20:55.524Z,101667.91
2023-02-01T20:23:23.651Z,101672.47
2023-02-01T20:25:51.800Z,101680.13
2023-02-01T20:28:19.212Z,101684.72
2023-02-01T20:30:47.245Z,101671.53
2023-02-01T20:33:15.798Z,101662.69
2023-02-01T20:35:46.229Z,101656.56
2023-02-01T20:38:14.920Z,101656.78
2023-02-01T20:40:42.998Z,101666.94
2023-02-01T20:43:11.218Z,101675.19
2023-02-01T20:45:42.392Z,101663.69
2023-02-01T20:48:12.128Z,101661.72
2023-02-01T20:50:39.598Z,101662.41
2023-02-01T20:53:08.222Z,101663.00
2023-02-01T20:55:36.908Z,101660.88
2023-02-01T20:58:04.882Z,101662.03
2023-02-01T21:00:32.717Z,101671.00
2023-02-01T21:03:00.073Z,101661.31
2023-02-01T21:05:39.961Z,101661.03
2023-02-01T21:08:12.844Z,101669.13
2023-02-01T21:10:40.223Z,101662.19
2023-02-01T21:13:07.820Z,101658.19
2023-02-01T21:15:36.190Z,101664.59
2023-02-01T21:18:06.308Z,101648.94
2023-02-01T21:20:33.655Z,101657.34
2023-02-01T21:23:01.023Z,101658.63
2023-02-01T21:25:28.850Z,101649.38
2023-02-01T21:27:56.591Z,101643.53
2023-02-01T21:30:24.074Z,101648.09
2023-02-01T21:32:51.663Z,101626.19
2023-02-01T21:35:18.994Z,101629.44
2023-02-01T21:37:46.295Z,101627.13
2023-02-01T21:40:14.853Z,101627.13
2023-02-01T21:42:45.502Z,101626.53
2023-02-01T21:45:14.608Z,101638.66
2023-02-01T21:47:42.501Z,101643.63
2023-02-01T21:50:15.463Z,101642.47
2023-02-01T21:52:44.377Z,101647.66
2023-02-01T21:55:13.685Z,101650.06
2023-02-01T21:57:41.751Z,101665.44
2023-02-01T22:00:09.837Z,101660.88
2023-02-01T22:02:37.135Z,101662.88
2023-02-01T22:05:06.564Z,101663.16
2023-02-01T22:07:36.212Z,101657.47
2023-02-01T22:10:04.317Z,101667.00
2023-02-01T22:12:32.044Z,101669.72
2023-02-01T22:15:00.366Z,101671.00
2023-02-01T22:17:28.064Z,101668.00
2023-02-01T22:19:55.356Z,101673.84
2023-02-01T22:22:22.595Z,101678.09
2023-02-01T22:24:50.055Z,101675.25
2023-02-01T22:27:17.765Z,101680.66
2023-02-01T22:29:45.097Z,101679.19
2023-02-01T22:32:14.023Z,101688.59
2023-02-01T22:34:41.526Z,101686.47
2023-02-01T22:37:10.207Z,101688.31
2023-02-01T22:39:38.480Z,101678.94
2023-02-01T22:42:06.259Z,101690.34
2023-02-01T22:44:34.053Z,101695.00
2023-02-01T22:47:01.354Z,101688.16
2023-02-01T22:49:28.916Z,101687.47
2023-02-01T22:51:56.676Z,101689.47
2023-02-01T22:54:24.044Z,101678.94
2023-02-01T22:56:52.107Z,101686.59
2023-02-01T22:59:19.430Z,101688.75
2023-02-01T23:01:46.720Z,101684.94
2023-02-01T23:04:15.015Z,101682.03
2023-02-01T23:06:43.083Z,101673.97
2023-02-01T23:09:17.035Z,101682.03
2023-02-01T23:11:44.822Z,101688.31
2023-02-01T23:14:13.389Z,101682.19
2023-02-01T23:16:43.419Z,101691.16
2023-02-01T23:19:10.695Z,101678.94
2023-02-01T23:21:38.332Z,101684.91
2023-02-01T23:24:07.717Z,101674.09
2023-02-01T23:26:35.260Z,101684.19
2023-02-01T23:29:03.962Z,101674.38
2023-02-01T23:31:34.152Z,101683.94
